sensor_id;sensor_type;location;lat;lon;timestamp;pressure;altitude;pressure_sealevel;temperature;humidity
78741;BME280;68062;48.726;9.370;2024-03-06T00:01:46;98791.97;;;4.87;100.00
78741;BME280;68062;48.726;9.370;2024-03-06T00:04:14;98787.56;;;4.78;100.00
78741;BME280;68062;48.726;9.370;2024-03-06T00:06:45;98792.66;;;4.78;100.00
78741;BME280;68062;48.726;9.370;2024-03-06T00:09:13;98795.19;;;4.78;100.00
78741;BME280;68062;48.726;9.370;2024-03-06T00:11:41;98799.41;;;4.78;100.00
78741;BME280;68062;48.726;9.370;2024-03-06T00:14:09;98770.06;;;4.55;100.00
78741;BME280;68062;48.726;9.370;2024-03-06T00:16:40;98799.41;;;4.76;100.00
78741;BME280;68062;48.726;9.370;2024-03-06T00:19:10;98797.63;;;4.74;100.00
78741;BME280;68062;48.726;9.370;2024-03-06T00:21:40;98807.06;;;4.78;100.00
78741;BME280;68062;48.726;9.370;2024-03-06T00:24:09;98805.47;;;4.81;100.00
78741;BME280;68062;48.726;9.370;2024-03-06T00:26:42;98795.97;;;4.74;100.00
78741;BME280;68062;48.726;9.370;2024-03-06T00:29:30;98802.91;;;4.81;100.00
78741;BME280;68062;48.726;9.370;2024-03-06T00:32:00;98803.66;;;4.77;100.00
78741;BME280;68062;48.726;9.370;2024-03-06T00:34:28;98805.78;;;4.97;100.00
78741;BME280;68062;48.726;9.370;2024-03-06T00:36:56;98802.59;;;5.07;100.00
78741;BME280;68062;48.726;9.370;2024-03-06T00:39:23;98797.38;;;5.01;100.00
78741;BME280;68062;48.726;9.370;2024-03-06T00:41:53;98799.81;;;4.96;100.00
78741;BME280;68062;48.726;9.370;2024-03-06T00:44:21;98796.50;;;5.00;100.00
78741;BME280;68062;48.726;9.370;2024-03-06T00:46:49;98800.66;;;4.95;100.00
78741;BME280;68062;48.726;9.370;2024-03-06T00:49:18;98793.91;;;4.97;100.00
78741;BME280;68062;48.726;9.370;2024-03-06T00:51:46;98802.69;;;5.12;100.00
78741;BME280;68062;48.726;9.370;2024-03-06T00:54:15;98799.41;;;5.18;100.00
78741;BME280;68062;48.726;9.370;2024-03-06T00:56:44;98803.06;;;5.29;100.00
78741;BME280;68062;48.726;9.370;2024-03-06T00:59:11;98809.75;;;5.25;100.00
78741;BME280;68062;48.726;9.370;2024-03-06T01:01:40;98802.03;;;5.21;100.00
78741;BME280;68062;48.726;9.370;2024-03-06T01:04:08;98805.34;;;5.17;100.00
78741;BME280;68062;48.726;9.370;2024-03-06T01:06:37;98789.69;;;4.99;100.00
78741;BME280;68062;48.726;9.370;2024-03-06T01:09:05;98802.31;;;4.93;100.00
78741;BME280;68062;48.726;9.370;2024-03-06T01:11:33;98799.72;;;4.92;100.00
78741;BME280;68062;48.726;9.370;2024-03-06T01:14:01;98804.69;;;4.85;100.00
78741;BME280;68062;48.726;9.370;2024-03-06T01:16:32;98807.19;;;4.82;100.00
78741;BME280;68062;48.726;9.370;2024-03-06T01:19:00;98767.63;;;4.60;100.00
78741;BME280;68062;48.726;9.370;2024-03-06T01:21:27;98802.09;;;4.82;100.00
78741;BME280;68062;48.726;9.370;2024-03-06T01:23:57;98788.88;;;4.62;100.00
78741;BME280;68062;48.726;9.370;2024-03-06T01:26:25;98804.22;;;4.64;100.00
78741;BME280;68062;48.726;9.370;2024-03-06T01:28:53;98801.53;;;4.57;100.00
78741;BME280;68062;48.726;9.370;2024-03-06T01:31:21;98799.75;;;4.55;100.00
78741;BME280;68062;48.726;9.370;2024-03-06T01:33:49;98802.22;;;4.52;100.00
78741;BME280;68062;48.726;9.370;2024-03-06T01:36:17;98809.03;;;4.51;100.00
78741;BME280;68062;48.726;9.370;2024-03-06T01:38:44;98785.06;;;4.43;100.00
78741;BME280;68062;48.726;9.370;2024-03-06T01:41:15;98801.41;;;4.51;100.00
78741;BME280;68062;48.726;9.370;2024-03-06T01:43:43;98806.72;;;4.62;100.00
78741;BME280;68062;48.726;9.370;2024-03-06T01:46:11;98820.34;;;4.64;100.00
78741;BME280;68062;48.726;9.370;2024-03-06T01:48:39;98812.75;;;4.66;100.00
78741;BME280;68062;48.726;9.370;2024-03-06T01:51:09;98787.00;;;4.53;100.00
78741;BME280;68062;48.726;9.370;2024-03-06T01:53:38;98814.44;;;4.65;100.00
78741;BME280;68062;48.726;9.370;2024-03-06T01:56:07;98808.38;;;4.60;100.00
78741;BME280;68062;48.726;9.370;2024-03-06T01:58:39;98812.50;;;4.55;100.00
78741;BME280;68062;48.726;9.370;2024-03-06T02:01:08;98795.00;;;4.32;100.00
78741;BME280;68062;48.726;9.370;2024-03-06T02:03:36;98818.41;;;4.52;100.00
78741;BME280;68062;48.726;9.370;2024-03-06T02:06:05;98815.88;;;4.54;100.00
78741;BME280;68062;48.726;9.370;2024-03-06T02:08:34;98782.34;;;4.35;100.00
78741;BME280;68062;48.726;9.370;2024-03-06T02:11:02;98825.22;;;4.55;100.00
78741;BME280;68062;48.726;9.370;2024-03-06T02:13:30;98820.19;;;4.56;100.00
78741;BME280;68062;48.726;9.370;2024-03-06T02:16:00;98817.53;;;4.52;100.00
78741;BME280;68062;48.726;9.370;2024-03-06T02:18:28;98818.41;;;4.52;100.00
78741;BME280;68062;48.726;9.370;2024-03-06T02:20:57;98813.31;;;4.52;100.00
78741;BME280;68062;48.726;9.370;2024-03-06T02:23:25;98817.59;;;4.55;100.00
78741;BME280;68062;48.726;9.370;2024-03-06T02:25:53;98816.00;;;4.59;100.00
78741;BME280;68062;48.726;9.370;2024-03-06T02:28:21;98809.94;;;4.55;100.00
78741;BME280;68062;48.726;9.370;2024-03-06T02:30:50;98779.63;;;4.27;100.00
78741;BME280;68062;48.726;9.370;2024-03-06T02:33:18;98810.63;;;4.48;100.00
78741;BME280;68062;48.726;9.370;2024-03-06T02:35:46;98801.69;;;4.64;100.00
78741;BME280;68062;48.726;9.370;2024-03-06T02:38:15;98794.84;;;4.63;100.00
78741;BME280;68062;48.726;9.370;2024-03-06T02:40:43;98808.56;;;4.68;100.00
78741;BME280;68062;48.726;9.370;2024-03-06T02:43:11;98788.72;;;4.54;100.00
78741;BME280;68062;48.726;9.370;2024-03-06T02:45:39;98797.16;;;4.52;100.00
78741;BME280;68062;48.726;9.370;2024-03-06T02:48:07;98800.44;;;4.46;100.00
78741;BME280;68062;48.726;9.370;2024-03-06T02:50:35;98804.31;;;4.32;100.00
78741;BME280;68062;48.726;9.370;2024-03-06T02:53:04;98798.19;;;4.23;100.00
78741;BME280;68062;48.726;9.370;2024-03-06T02:55:33;98812.56;;;4.21;100.00
78741;BME280;68062;48.726;9.370;2024-03-06T02:58:01;98798.72;;;4.11;100.00
78741;BME280;68062;48.726;9.370;2024-03-06T03:00:29;98813.25;;;4.14;100.00
78741;BME280;68062;48.726;9.370;2024-03-06T03:02:58;98814.16;;;4.18;100.00
78741;BME280;68062;48.726;9.370;2024-03-06T03:05:26;98818.78;;;4.33;100.00
78741;BME280;68062;48.726;9.370;2024-03-06T03:07:54;98814.44;;;4.29;100.00
78741;BME280;68062;48.726;9.370;2024-03-06T03:10:21;98817.91;;;4.32;100.00
78741;BME280;68062;48.726;9.370;2024-03-06T03:12:52;98817.22;;;4.38;100.00
78741;BME280;68062;48.726;9.370;2024-03-06T03:15:21;98818.84;;;4.36;100.00
78741;BME280;68062;48.726;9.370;2024-03-06T03:17:49;98811.16;;;4.33;100.00
78741;BME280;68062;48.726;9.370;2024-03-06T03:20:17;98788.84;;;4.24;100.00
78741;BME280;68062;48.726;9.370;2024-03-06T03:22:45;98816.38;;;4.39;100.00
78741;BME280;68062;48.726;9.370;2024-03-06T03:25:13;98819.81;;;4.41;100.00
78741;BME280;68062;48.726;9.370;2024-03-06T03:27:41;98817.91;;;4.32;100.00
78741;BME280;68062;48.726;9.370;2024-03-06T03:30:12;98811.75;;;4.24;100.00
78741;BME280;68062;48.726;9.370;2024-03-06T03:32:40;98819.47;;;4.25;100.00
78741;BME280;68062;48.726;9.370;2024-03-06T03:35:08;98810.03;;;4.21;100.00
78741;BME280;68062;48.726;9.370;2024-03-06T03:37:36;98831.38;;;4.26;100.00
78741;BME280;68062;48.726;9.370;2024-03-06T03:40:05;98828.66;;;4.20;100.00
78741;BME280;68062;48.726;9.370;2024-03-06T03:42:34;98826.78;;;4.13;100.00
78741;BME280;68062;48.726;9.370;2024-03-06T03:45:02;98824.31;;;4.16;100.00
78741;BME280;68062;48.726;9.370;2024-03-06T03:47:31;98837.97;;;4.20;100.00
78741;BME280;68062;48.726;9.370;2024-03-06T03:49:59;98832.81;;;4.17;100.00
78741;BME280;68062;48.726;9.370;2024-03-06T03:52:36;98841.25;;;4.14;100.00
78741;BME280;68062;48.726;9.370;2024-03-06T03:55:08;98836.00;;;4.09;100.00
78741;BME280;68062;48.726;9.370;2024-03-06T03:57:36;98834.28;;;4.07;100.00
78741;BME280;68062;48.726;9.370;2024-03-06T04:00:05;98835.03;;;4.04;100.00
78741;BME280;68062;48.726;9.370;2024-03-06T04:02:39;98836.00;;;4.08;100.00
78741;BME280;68062;48.726;9.370;2024-03-06T04:05:08;98836.97;;;4.13;100.00
78741;BME280;68062;48.726;9.370;2024-03-06T04:07:36;98844.72;;;4.18;100.00
78741;BME280;68062;48.726;9.370;2024-03-06T04:10:04;98849.06;;;4.22;100.00
78741;BME280;68062;48.726;9.370;2024-03-06T04:12:33;98844.91;;;4.25;100.00
78741;BME280;68062;48.726;9.370;2024-03-06T04:15:01;98843.22;;;4.26;100.00
78741;BME280;68062;48.726;9.370;2024-03-06T04:17:28;98847.63;;;4.32;100.00
78741;BME280;68062;48.726;9.370;2024-03-06T04:19:58;98847.69;;;4.35;100.00
78741;BME280;68062;48.726;9.370;2024-03-06T04:22:26;98845.00;;;4.30;100.00
78741;BME280;68062;48.726;9.370;2024-03-06T04:24:56;98846.88;;;4.36;100.00
78741;BME280;68062;48.726;9.370;2024-03-06T04:27:25;98851.97;;;4.37;100.00
78741;BME280;68062;48.726;9.370;2024-03-06T04:29:53;98843.38;;;4.32;100.00
78741;BME280;68062;48.726;9.370;2024-03-06T04:32:20;98856.06;;;4.31;100.00
78741;BME280;68062;48.726;9.370;2024-03-06T04:34:49;98862.06;;;4.33;100.00
78741;BME280;68062;48.726;9.370;2024-03-06T04:37:18;98866.25;;;4.31;100.00
78741;BME280;68062;48.726;9.370;2024-03-06T04:39:47;98867.97;;;4.32;100.00
78741;BME280;68062;48.726;9.370;2024-03-06T04:42:15;98862.81;;;4.29;100.00
78741;BME280;68062;48.726;9.370;2024-03-06T04:44:44;98869.63;;;4.30;100.00
78741;BME280;68062;48.726;9.370;2024-03-06T04:47:13;98864.53;;;4.30;100.00
78741;BME280;68062;48.726;9.370;2024-03-06T04:49:40;98871.28;;;4.29;100.00
78741;BME280;68062;48.726;9.370;2024-03-06T04:52:09;98868.06;;;4.35;100.00
78741;BME280;68062;48.726;9.370;2024-03-06T04:54:38;98876.44;;;4.31;100.00
78741;BME280;68062;48.726;9.370;2024-03-06T04:57:06;98875.56;;;4.30;100.00
78741;BME280;68062;48.726;9.370;2024-03-06T04:59:36;98877.22;;;4.28;100.00
78741;BME280;68062;48.726;9.370;2024-03-06T05:02:04;98876.31;;;4.26;100.00
78741;BME280;68062;48.726;9.370;2024-03-06T05:04:32;98878.00;;;4.25;100.00
78741;BME280;68062;48.726;9.370;2024-03-06T05:07:17;98881.41;;;4.26;100.00
78741;BME280;68062;48.726;9.370;2024-03-06T05:10:05;98890.59;;;4.21;100.00
78741;BME280;68062;48.726;9.370;2024-03-06T05:12:51;98891.28;;;4.13;100.00
78741;BME280;68062;48.726;9.370;2024-03-06T05:15:37;98900.56;;;4.11;100.00
78741;BME280;68062;48.726;9.370;2024-03-06T05:18:23;98892.16;;;4.16;100.00
78741;BME280;68062;48.726;9.370;2024-03-06T05:21:08;98898.00;;;4.11;100.00
78741;BME280;68062;48.726;9.370;2024-03-06T05:23:53;98898.88;;;4.12;100.00
78741;BME280;68062;48.726;9.370;2024-03-06T05:26:40;98893.81;;;4.13;100.00
78741;BME280;68062;48.726;9.370;2024-03-06T05:29:25;98898.06;;;4.13;100.00
78741;BME280;68062;48.726;9.370;2024-03-06T05:32:10;98902.44;;;4.19;100.00
78741;BME280;68062;48.726;9.370;2024-03-06T05:34:55;98907.53;;;4.19;100.00
78741;BME280;68062;48.726;9.370;2024-03-06T05:37:42;98903.38;;;4.22;100.00
78741;BME280;68062;48.726;9.370;2024-03-06T05:40:27;98913.59;;;4.24;100.00
78741;BME280;68062;48.726;9.370;2024-03-06T05:43:15;98914.47;;;4.24;100.00
78741;BME280;68062;48.726;9.370;2024-03-06T05:46:01;98914.56;;;4.27;100.00
78741;BME280;68062;48.726;9.370;2024-03-06T05:48:46;98914.56;;;4.29;100.00
78741;BME280;68062;48.726;9.370;2024-03-06T05:51:32;98924.94;;;4.35;100.00
78741;BME280;68062;48.726;9.370;2024-03-06T05:54:17;98935.25;;;4.40;100.00
78741;BME280;68062;48.726;9.370;2024-03-06T05:57:03;98934.53;;;4.46;100.00
78741;BME280;68062;48.726;9.370;2024-03-06T05:59:49;98933.75;;;4.48;100.00
78741;BME280;68062;48.726;9.370;2024-03-06T06:02:17;98938.03;;;4.49;100.00
78741;BME280;68062;48.726;9.370;2024-03-06T06:04:46;98950.00;;;4.53;100.00
78741;BME280;68062;48.726;9.370;2024-03-06T06:07:30;98950.84;;;4.52;100.00
78741;BME280;68062;48.726;9.370;2024-03-06T06:09:58;98942.41;;;4.55;100.00
78741;BME280;68062;48.726;9.370;2024-03-06T06:12:26;98955.34;;;4.63;100.00
78741;BME280;68062;48.726;9.370;2024-03-06T06:14:55;98941.56;;;4.56;100.00
78741;BME280;68062;48.726;9.370;2024-03-06T06:17:23;98946.81;;;4.61;100.00
78741;BME280;68062;48.726;9.370;2024-03-06T06:19:52;98964.75;;;4.65;100.00
78741;BME280;68062;48.726;9.370;2024-03-06T06:22:20;98954.75;;;4.73;100.00
78741;BME280;68062;48.726;9.370;2024-03-06T06:24:48;98968.31;;;4.72;100.00
78741;BME280;68062;48.726;9.370;2024-03-06T06:27:16;98969.00;;;4.66;100.00
78741;BME280;68062;48.726;9.370;2024-03-06T06:29:43;98971.41;;;4.60;100.00
78741;BME280;68062;48.726;9.370;2024-03-06T06:32:13;98967.94;;;4.56;100.00
78741;BME280;68062;48.726;9.370;2024-03-06T06:34:41;98978.06;;;4.55;100.00
78741;BME280;68062;48.726;9.370;2024-03-06T06:37:08;98985.13;;;4.65;100.00
78741;BME280;68062;48.726;9.370;2024-03-06T06:39:36;98974.19;;;4.69;100.00
78741;BME280;68062;48.726;9.370;2024-03-06T06:42:04;98975.91;;;4.70;100.00
78741;BME280;68062;48.726;9.370;2024-03-06T06:44:32;98979.34;;;4.72;100.00
78741;BME280;68062;48.726;9.370;2024-03-06T06:47:00;98974.22;;;4.71;100.00
78741;BME280;68062;48.726;9.370;2024-03-06T06:49:29;98964.00;;;4.69;100.00
78741;BME280;68062;48.726;9.370;2024-03-06T06:51:56;98978.59;;;4.77;100.00
78741;BME280;68062;48.726;9.370;2024-03-06T06:54:25;98971.13;;;4.83;100.00
78741;BME280;68062;48.726;9.370;2024-03-06T06:56:52;98959.91;;;4.76;100.00
78741;BME280;68062;48.726;9.370;2024-03-06T06:59:20;98978.81;;;4.84;100.00
78741;BME280;68062;48.726;9.370;2024-03-06T07:01:51;98980.63;;;4.89;100.00
78741;BME280;68062;48.726;9.370;2024-03-06T07:04:21;98974.56;;;4.85;100.00
78741;BME280;68062;48.726;9.370;2024-03-06T07:06:52;98977.19;;;4.88;100.00
78741;BME280;68062;48.726;9.370;2024-03-06T07:09:20;98966.75;;;4.79;100.00
78741;BME280;68062;48.726;9.370;2024-03-06T07:11:48;98985.88;;;4.96;100.00
78741;BME280;68062;48.726;9.370;2024-03-06T07:14:16;98990.22;;;4.99;100.00
78741;BME280;68062;48.726;9.370;2024-03-06T07:16:44;99001.09;;;4.93;100.00
78741;BME280;68062;48.726;9.370;2024-03-06T07:19:13;99002.06;;;4.97;100.00
78741;BME280;68062;48.726;9.370;2024-03-06T07:21:41;98995.31;;;4.99;100.00
78741;BME280;68062;48.726;9.370;2024-03-06T07:24:10;98986.00;;;5.01;100.00
78741;BME280;68062;48.726;9.370;2024-03-06T07:26:38;98985.34;;;5.08;100.00
78741;BME280;68062;48.726;9.370;2024-03-06T07:29:06;99000.66;;;5.10;100.00
78741;BME280;68062;48.726;9.370;2024-03-06T07:31:40;99003.41;;;5.18;100.00
78741;BME280;68062;48.726;9.370;2024-03-06T07:34:08;99000.91;;;5.21;100.00
78741;BME280;68062;48.726;9.370;2024-03-06T07:36:36;98998.50;;;5.27;100.00
78741;BME280;68062;48.726;9.370;2024-03-06T07:39:04;99003.09;;;5.42;100.00
78741;BME280;68062;48.726;9.370;2024-03-06T07:41:33;99004.75;;;5.41;100.00
78741;BME280;68062;48.726;9.370;2024-03-06T07:44:02;99007.38;;;5.43;100.00
78741;BME280;68062;48.726;9.370;2024-03-06T07:46:30;99009.09;;;5.44;100.00
78741;BME280;68062;48.726;9.370;2024-03-06T07:48:58;99022.75;;;5.48;100.00
78741;BME280;68062;48.726;9.370;2024-03-06T07:51:25;99018.47;;;5.47;100.00
78741;BME280;68062;48.726;9.370;2024-03-06T07:53:53;99014.28;;;5.49;100.00
78741;BME280;68062;48.726;9.370;2024-03-06T07:56:21;99026.13;;;5.45;100.00
78741;BME280;68062;48.726;9.370;2024-03-06T07:58:51;99024.56;;;5.52;100.00
78741;BME280;68062;48.726;9.370;2024-03-06T08:01:20;99030.75;;;5.63;100.00
78741;BME280;68062;48.726;9.370;2024-03-06T08:03:48;99021.44;;;5.64;100.00
78741;BME280;68062;48.726;9.370;2024-03-06T08:06:18;99022.25;;;5.63;100.00
78741;BME280;68062;48.726;9.370;2024-03-06T08:08:46;99025.44;;;5.54;100.00
78741;BME280;68062;48.726;9.370;2024-03-06T08:11:14;99027.94;;;5.51;100.00
78741;BME280;68062;48.726;9.370;2024-03-06T08:13:43;99023.63;;;5.48;100.00
78741;BME280;68062;48.726;9.370;2024-03-06T08:16:13;99037.06;;;5.41;100.00
78741;BME280;68062;48.726;9.370;2024-03-06T08:18:41;99024.13;;;5.33;100.00
78741;BME280;68062;48.726;9.370;2024-03-06T08:21:08;98992.41;;;5.20;100.00
78741;BME280;68062;48.726;9.370;2024-03-06T08:23:39;99020.31;;;5.52;100.00
78741;BME280;68062;48.726;9.370;2024-03-06T08:26:07;99025.44;;;5.54;100.00
78741;BME280;68062;48.726;9.370;2024-03-06T08:28:37;99029.03;;;5.60;100.00
78741;BME280;68062;48.726;9.370;2024-03-06T08:31:05;99020.00;;;5.38;100.00
78741;BME280;68062;48.726;9.370;2024-03-06T08:33:36;99024.41;;;5.44;100.00
78741;BME280;68062;48.726;9.370;2024-03-06T08:36:10;99031.91;;;5.39;100.00
78741;BME280;68062;48.726;9.370;2024-03-06T08:38:38;99035.38;;;5.41;100.00
78741;BME280;68062;48.726;9.370;2024-03-06T08:41:08;99037.00;;;5.38;100.00
78741;BME280;68062;48.726;9.370;2024-03-06T08:43:36;99005.75;;;5.10;100.00
78741;BME280;68062;48.726;9.370;2024-03-06T08:46:05;99044.34;;;5.24;100.00
78741;BME280;68062;48.726;9.370;2024-03-06T08:48:37;99043.53;;;5.25;100.00
78741;BME280;68062;48.726;9.370;2024-03-06T08:51:06;99025.31;;;5.11;100.00
78741;BME280;68062;48.726;9.370;2024-03-06T08:53:38;99033.09;;;5.15;100.00
78741;BME280;68062;48.726;9.370;2024-03-06T08:56:08;99050.00;;;5.12;100.00
78741;BME280;68062;48.726;9.370;2024-03-06T08:58:42;99050.81;;;5.11;100.00
78741;BME280;68062;48.726;9.370;2024-03-06T09:01:11;99054.25;;;5.13;100.00
78741;BME280;68062;48.726;9.370;2024-03-06T09:03:42;99045.88;;;5.17;100.00
78741;BME280;68062;48.726;9.370;2024-03-06T09:06:12;99035.66;;;5.17;100.00
78741;BME280;68062;48.726;9.370;2024-03-06T09:08:41;99062.06;;;5.19;100.00
78741;BME280;68062;48.726;9.370;2024-03-06T09:11:10;99041.56;;;5.14;100.00
78741;BME280;68062;48.726;9.370;2024-03-06T09:13:58;99047.50;;;5.13;100.00
78741;BME280;68062;48.726;9.370;2024-03-06T09:16:32;99044.13;;;5.16;100.00
78741;BME280;68062;48.726;9.370;2024-03-06T09:46:08;99075.22;;;5.36;100.00
78741;BME280;68062;48.726;9.370;2024-03-06T09:48:44;99075.19;;;5.35;100.00
78741;BME280;68062;48.726;9.370;2024-03-06T09:51:14;99086.44;;;5.43;100.00
78741;BME280;68062;48.726;9.370;2024-03-06T09:53:51;99085.50;;;5.39;100.00
78741;BME280;68062;48.726;9.370;2024-03-06T09:56:21;99060.50;;;5.24;100.00
78741;BME280;68062;48.726;9.370;2024-03-06T09:58:53;99094.16;;;5.46;100.00
78741;BME280;68062;48.726;9.370;2024-03-06T10:01:25;99084.03;;;5.49;100.00
78741;BME280;68062;48.726;9.370;2024-03-06T10:03:59;99087.25;;;5.42;100.00
78741;BME280;68062;48.726;9.370;2024-03-06T10:06:31;99055.16;;;5.15;100.00
78741;BME280;68062;48.726;9.370;2024-03-06T10:09:04;99099.38;;;5.51;100.00
78741;BME280;68062;48.726;9.370;2024-03-06T10:11:38;99080.66;;;5.50;100.00
78741;BME280;68062;48.726;9.370;2024-03-06T10:14:24;99100.69;;;5.70;100.00
78741;BME280;68062;48.726;9.370;2024-03-06T10:17:09;99087.84;;;5.67;100.00
78741;BME280;68062;48.726;9.370;2024-03-06T10:19:41;99092.06;;;5.65;100.00
78741;BME280;68062;48.726;9.370;2024-03-06T10:22:21;99094.59;;;5.65;100.00
78741;BME280;68062;48.726;9.370;2024-03-06T10:25:19;99054.84;;;5.38;100.00
78741;BME280;68062;48.726;9.370;2024-03-06T10:28:03;99092.69;;;5.56;100.00
78741;BME280;68062;48.726;9.370;2024-03-06T10:30:33;99090.19;;;5.57;100.00
78741;BME280;68062;48.726;9.370;2024-03-06T10:36:53;99091.72;;;5.51;100.00
78741;BME280;68062;48.726;9.370;2024-03-06T10:39:43;99083.28;;;5.53;100.00
78741;BME280;68062;48.726;9.370;2024-03-06T10:42:16;99083.44;;;5.61;100.00
78741;BME280;68062;48.726;9.370;2024-03-06T10:45:47;99087.09;;;5.71;100.00
78741;BME280;68062;48.726;9.370;2024-03-06T10:48:36;99087.16;;;5.74;100.00
78741;BME280;68062;48.726;9.370;2024-03-06T10:52:07;99096.69;;;5.83;100.00
78741;BME280;68062;48.726;9.370;2024-03-06T10:54:53;99091.84;;;5.94;100.00
78741;BME280;68062;48.726;9.370;2024-03-06T10:57:39;99089.66;;;6.09;100.00
78741;BME280;68062;48.726;9.370;2024-03-06T11:00:16;99087.44;;;6.26;100.00
78741;BME280;68062;48.726;9.370;2024-03-06T11:02:46;99081.00;;;6.44;100.00
78741;BME280;68062;48.726;9.370;2024-03-06T11:05:16;99074.72;;;6.28;100.00
78741;BME280;68062;48.726;9.370;2024-03-06T11:07:49;99088.59;;;6.39;100.00
78741;BME280;68062;48.726;9.370;2024-03-06T11:10:30;99089.38;;;6.37;100.00
78741;BME280;68062;48.726;9.370;2024-03-06T11:12:58;99093.66;;;6.38;100.00
78741;BME280;68062;48.726;9.370;2024-03-06T11:15:26;99100.59;;;6.45;100.00
78741;BME280;68062;48.726;9.370;2024-03-06T11:17:54;99083.84;;;6.59;100.00
78741;BME280;68062;48.726;9.370;2024-03-06T11:20:23;99095.91;;;6.67;100.00
78741;BME280;68062;48.726;9.370;2024-03-06T11:23:09;99088.78;;;6.50;100.00
78741;BME280;68062;48.726;9.370;2024-03-06T11:26:00;99095.22;;;6.31;100.00
78741;BME280;68062;48.726;9.370;2024-03-06T11:28:30;99033.59;;;5.75;100.00
78741;BME280;68062;48.726;9.370;2024-03-06T11:31:03;99097.88;;;5.97;100.00
78741;BME280;68062;48.726;9.370;2024-03-06T11:33:36;99088.34;;;5.88;100.00
78741;BME280;68062;48.726;9.370;2024-03-06T11:36:18;99052.13;;;5.68;100.00
78741;BME280;68062;48.726;9.370;2024-03-06T11:38:51;99085.09;;;5.96;100.00
78741;BME280;68062;48.726;9.370;2024-03-06T11:41:25;99099.69;;;6.01;100.00
78741;BME280;68062;48.726;9.370;2024-03-06T11:43:55;99105.69;;;6.03;100.00
78741;BME280;68062;48.726;9.370;2024-03-06T11:46:43;99095.75;;;6.16;100.00
78741;BME280;68062;48.726;9.370;2024-03-06T11:49:15;99093.25;;;6.19;100.00
78741;BME280;68062;48.726;9.370;2024-03-06T11:51:44;99049.97;;;5.85;100.00
78741;BME280;68062;48.726;9.370;2024-03-06T11:54:17;99089.44;;;6.00;100.00
78741;BME280;68062;48.726;9.370;2024-03-06T11:56:54;99089.38;;;5.98;100.00
78741;BME280;68062;48.726;9.370;2024-03-06T11:59:23;99086.28;;;6.10;100.00
78741;BME280;68062;48.726;9.370;2024-03-06T12:01:51;99093.19;;;6.16;100.00
78741;BME280;68062;48.726;9.370;2024-03-06T12:04:20;99043.16;;;5.84;100.00
78741;BME280;68062;48.726;9.370;2024-03-06T12:06:48;99088.28;;;6.24;100.00
78741;BME280;68062;48.726;9.370;2024-03-06T12:09:18;99096.88;;;6.29;100.00
78741;BME280;68062;48.726;9.370;2024-03-06T12:11:47;99095.25;;;6.32;100.00
78741;BME280;68062;48.726;9.370;2024-03-06T12:14:17;99085.03;;;6.32;100.00
78741;BME280;68062;48.726;9.370;2024-03-06T12:16:54;99078.13;;;6.27;100.00
78741;BME280;68062;48.726;9.370;2024-03-06T12:19:26;99086.59;;;6.26;100.00
78741;BME280;68062;48.726;9.370;2024-03-06T12:21:59;99096.81;;;6.26;100.00
78741;BME280;68062;48.726;9.370;2024-03-06T12:24:33;99088.97;;;6.18;100.00
78741;BME280;68062;48.726;9.370;2024-03-06T12:27:03;99090.75;;;6.21;100.00
78741;BME280;68062;48.726;9.370;2024-03-06T12:29:35;99095.94;;;6.25;100.00
78741;BME280;68062;48.726;9.370;2024-03-06T12:32:15;99090.63;;;6.14;100.00
78741;BME280;68062;48.726;9.370;2024-03-06T12:34:55;99094.13;;;6.20;100.00
78741;BME280;68062;48.726;9.370;2024-03-06T12:37:28;99057.19;;;6.03;100.00
78741;BME280;68062;48.726;9.370;2024-03-06T12:40:04;99095.22;;;6.31;100.00
78741;BME280;68062;48.726;9.370;2024-03-06T12:42:32;99094.41;;;6.32;100.00
78741;BME280;68062;48.726;9.370;2024-03-06T12:45:01;99088.34;;;6.28;100.00
78741;BME280;68062;48.726;9.370;2024-03-06T12:47:30;99087.56;;;6.31;100.00
78741;BME280;68062;48.726;9.370;2024-03-06T12:49:58;99100.91;;;6.19;100.00
78741;BME280;68062;48.726;9.370;2024-03-06T12:52:29;99098.38;;;6.19;100.00
78741;BME280;68062;48.726;9.370;2024-03-06T12:54:58;99087.25;;;6.17;100.00
78741;BME280;68062;48.726;9.370;2024-03-06T12:57:28;99098.31;;;6.16;100.00
78741;BME280;68062;48.726;9.370;2024-03-06T12:59:56;99084.63;;;6.12;100.00
78741;BME280;68062;48.726;9.370;2024-03-06T13:02:26;99061.56;;;6.09;100.00
78741;BME280;68062;48.726;9.370;2024-03-06T13:04:54;99081.38;;;6.20;100.00
78741;BME280;68062;48.726;9.370;2024-03-06T13:07:22;99064.19;;;6.12;100.00
78741;BME280;68062;48.726;9.370;2024-03-06T13:09:50;99080.50;;;6.19;100.00
78741;BME280;68062;48.726;9.370;2024-03-06T13:12:18;99082.41;;;6.29;100.00
78741;BME280;68062;48.726;9.370;2024-03-06T13:14:58;99079.97;;;6.36;100.00
78741;BME280;68062;48.726;9.370;2024-03-06T13:17:29;99059.16;;;6.15;100.00
78741;BME280;68062;48.726;9.370;2024-03-06T13:19:58;99087.81;;;6.43;100.00
78741;BME280;68062;48.726;9.370;2024-03-06T13:22:27;99085.25;;;6.43;100.00
78741;BME280;68062;48.726;9.370;2024-03-06T13:24:55;99081.88;;;6.44;100.00
78741;BME280;68062;48.726;9.370;2024-03-06T13:27:25;99079.38;;;6.47;100.00
78741;BME280;68062;48.726;9.370;2024-03-06T13:29:53;99059.34;;;6.26;100.00
78741;BME280;68062;48.726;9.370;2024-03-06T13:32:22;99080.03;;;6.39;100.00
78741;BME280;68062;48.726;9.370;2024-03-06T13:34:59;99077.41;;;6.34;100.00
78741;BME280;68062;48.726;9.370;2024-03-06T13:37:28;99026.38;;;5.97;100.00
78741;BME280;68062;48.726;9.370;2024-03-06T13:39:56;99084.13;;;6.29;100.00
78741;BME280;68062;48.726;9.370;2024-03-06T13:42:27;99088.19;;;6.21;100.00
78741;BME280;68062;48.726;9.370;2024-03-06T13:44:55;99080.38;;;6.13;100.00
78741;BME280;68062;48.726;9.370;2024-03-06T13:47:25;99069.25;;;6.09;100.00
78741;BME280;68062;48.726;9.370;2024-03-06T13:49:54;99081.19;;;6.12;100.00
78741;BME280;68062;48.726;9.370;2024-03-06T13:52:23;99086.44;;;6.18;100.00
78741;BME280;68062;48.726;9.370;2024-03-06T13:54:53;99089.03;;;6.20;100.00